Time;durP1;ratioP1;P1;durP2;ratioP2;P2;SDS_P1;SDS_P2;PMS_P1;PMS_P2;Temp;Humidity;BMP_temperature;BMP_pressure;BME280_temperature;BME280_humidity;BME280_pressure;Samples;Min_cycle;Max_cycle;Signal;HPM_P1;HPM_P2
2022/07/08 00:00:46;;;;;;;2.22;0.28;;;19.70;86.50;;;;;;5008093;28;20030;-73
2022/07/08 00:03:14;;;;;;;2.15;0.63;;;19.80;86.80;;;;;;5001745;28;20045;-72
2022/07/08 00:05:44;;;;;;;0.85;0.73;;;20.00;86.10;;;;;;5000100;28;20125;-73
2022/07/08 00:08:11;;;;;;;0.32;0.30;;;20.30;85.60;;;;;;5013567;28;20337;-74
2022/07/08 00:10:38;;;;;;;0.75;0.30;;;20.50;86.20;;;;;;5004582;28;20032;-73
2022/07/08 00:13:06;;;;;;;0.52;0.20;;;20.80;84.20;;;;;;5018239;28;20052;-74
2022/07/08 00:15:33;;;;;;;0.80;0.40;;;20.80;84.30;;;;;;5010071;28;20174;-74
2022/07/08 00:18:00;;;;;;;0.20;0.20;;;21.10;83.90;;;;;;5011263;28;20100;-72
2022/07/08 00:20:28;;;;;;;0.85;0.40;;;20.90;83.80;;;;;;5000212;28;20022;-75
2022/07/08 00:22:56;;;;;;;1.13;0.50;;;21.20;81.60;;;;;;5004247;28;20022;-72
2022/07/08 00:25:24;;;;;;;1.27;0.38;;;21.40;81.20;;;;;;5002900;28;20029;-73
2022/07/08 00:27:51;;;;;;;0.40;0.20;;;21.20;80.60;;;;;;5007458;28;20068;-72
2022/07/08 00:30:18;;;;;;;0.45;0.20;;;21.00;83.30;;;;;;4995459;28;20052;-73
2022/07/08 00:32:46;;;;;;;1.33;0.30;;;21.10;84.80;;;;;;4992377;28;20341;-73
2022/07/08 00:35:13;;;;;;;0.43;0.20;;;21.30;84.90;;;;;;4989181;28;20029;-74
2022/07/08 00:37:40;;;;;;;0.95;0.32;;;21.50;82.10;;;;;;4989935;28;20048;-74
2022/07/08 00:40:08;;;;;;;0.28;0.17;;;21.90;79.40;;;;;;4989764;28;20023;-73
2022/07/08 00:42:35;;;;;;;0.40;0.20;;;21.90;80.40;;;;;;4995587;28;20026;-72
2022/07/08 00:45:03;;;;;;;0.90;0.50;;;22.10;80.90;;;;;;5008665;28;20044;-72
2022/07/08 00:47:30;;;;;;;3.60;0.20;;;21.90;79.60;;;;;;4992195;28;20026;-74
2022/07/08 00:49:58;;;;;;;0.60;0.30;;;22.40;79.50;;;;;;4992954;28;20448;-72
2022/07/08 00:52:25;;;;;;;0.50;0.22;;;22.70;80.60;;;;;;5005234;28;20049;-72
2022/07/08 00:54:53;;;;;;;1.00;0.20;;;23.00;78.70;;;;;;5034412;28;20033;-72
2022/07/08 00:57:21;;;;;;;2.45;0.30;;;23.40;80.50;;;;;;5037957;28;20021;-72
2022/07/08 00:59:48;;;;;;;0.40;0.10;;;23.50;78.50;;;;;;5057915;28;20021;-72
2022/07/08 01:02:16;;;;;;;0.88;0.10;;;23.80;79.30;;;;;;5040560;28;20026;-76
2022/07/08 01:04:43;;;;;;;1.05;0.10;;;23.60;77.80;;;;;;5043918;28;20083;-75
2022/07/08 01:07:12;;;;;;;1.77;0.20;;;23.90;76.90;;;;;;5038479;28;20071;-72
2022/07/08 01:09:39;;;;;;;1.67;0.10;;;23.70;77.80;;;;;;5057912;28;20508;-74
2022/07/08 01:12:07;;;;;;;0.32;0.10;;;23.50;75.20;;;;;;5054139;28;20037;-75
2022/07/08 01:14:35;;;;;;;1.15;0.30;;;23.70;76.90;;;;;;5046308;28;20124;-74
2022/07/08 01:17:03;;;;;;;1.38;0.40;;;23.50;77.30;;;;;;5034078;28;20030;-75
2022/07/08 01:19:32;;;;;;;0.90;0.22;;;23.90;77.20;;;;;;5031705;28;20044;-74
2022/07/08 01:22:00;;;;;;;0.25;0.08;;;24.00;76.60;;;;;;5049346;28;20028;-74
2022/07/08 01:24:27;;;;;;;0.77;0.20;;;23.50;75.50;;;;;;5063652;28;20308;-73
2022/07/08 01:26:56;;;;;;;0.65;0.00;;;23.80;76.30;;;;;;5033378;28;20061;-73
2022/07/08 01:29:24;;;;;;;0.30;0.10;;;24.10;77.50;;;;;;5029674;28;20236;-73
2022/07/08 01:31:59;;;;;;;0.30;0.00;;;24.30;75.00;;;;;;5030157;28;20026;-74
2022/07/08 01:34:26;;;;;;;0.03;0.00;;;24.20;75.40;;;;;;5034259;28;20094;-74
2022/07/08 01:36:54;;;;;;;0.40;0.00;;;24.20;74.00;;;;;;5048154;28;20116;-74
2022/07/08 01:39:21;;;;;;;0.10;0.00;;;23.90;74.70;;;;;;5042285;28;20041;-73
2022/07/08 01:41:48;;;;;;;2.45;0.20;;;23.90;75.30;;;;;;5044400;28;20026;-73
2022/07/08 01:44:16;;;;;;;0.08;0.00;;;24.00;75.50;;;;;;5055360;28;20025;-73
2022/07/08 01:46:43;;;;;;;0.55;0.10;;;24.40;75.00;;;;;;5044535;28;20048;-73
2022/07/08 01:49:14;;;;;;;0.85;0.20;;;24.70;74.00;;;;;;5048531;28;20032;-74
2022/07/08 01:51:42;;;;;;;0.80;0.10;;;24.50;73.00;;;;;;5048403;28;20041;-73
2022/07/08 01:54:09;;;;;;;1.20;0.10;;;24.40;73.50;;;;;;5051557;28;20144;-73
2022/07/08 01:56:36;;;;;;;1.23;0.10;;;24.00;73.50;;;;;;5048971;28;20029;-73
2022/07/08 01:59:04;;;;;;;1.63;0.25;;;24.10;73.60;;;;;;5046144;28;20056;-74
2022/07/08 02:01:31;;;;;;;0.25;0.00;;;24.20;74.40;;;;;;5051730;28;21515;-74
2022/07/08 02:04:01;;;;;;;0.03;0.00;;;24.30;72.90;;;;;;5050185;28;20485;-75
2022/07/08 02:06:28;;;;;;;0.47;0.10;;;24.10;74.10;;;;;;5048728;28;20108;-73
2022/07/08 02:08:56;;;;;;;0.85;0.00;;;24.20;74.20;;;;;;5055820;28;20124;-77
2022/07/08 02:14:09;;;;;;;0.98;0.10;;;24.30;75.00;;;;;;5061199;28;20555;-76
2022/07/08 02:16:36;;;;;;;0.20;0.10;;;24.50;74.50;;;;;;5046906;28;20032;-76
2022/07/08 02:19:03;;;;;;;0.28;0.10;;;24.60;74.40;;;;;;5030917;28;20542;-72
2022/07/08 02:21:31;;;;;;;0.13;0.10;;;25.10;74.70;;;;;;5041089;28;20025;-74
2022/07/08 02:23:58;;;;;;;0.57;0.00;;;25.00;75.30;;;;;;5043397;28;20013;-73
2022/07/08 02:26:25;;;;;;;0.22;0.00;;;25.00;75.10;;;;;;5040931;28;20084;-73
2022/07/08 02:28:53;;;;;;;0.22;0.00;;;25.20;75.10;;;;;;5041103;28;20025;-74
2022/07/08 02:31:20;;;;;;;0.52;0.10;;;25.00;73.10;;;;;;5040984;28;20021;-73
2022/07/08 02:33:47;;;;;;;0.88;0.03;;;24.70;74.60;;;;;;5043945;28;20043;-75
2022/07/08 02:36:15;;;;;;;0.28;0.10;;;24.60;74.90;;;;;;5044219;28;20071;-73
2022/07/08 02:38:42;;;;;;;0.75;0.13;;;24.30;73.80;;;;;;5051857;28;20021;-71
2022/07/08 02:41:10;;;;;;;0.43;0.10;;;24.10;73.60;;;;;;5034285;28;20080;-75
2022/07/08 02:43:37;;;;;;;0.47;0.10;;;23.80;75.50;;;;;;5035418;28;20439;-77
2022/07/08 02:46:05;;;;;;;0.45;0.00;;;23.60;74.60;;;;;;5038014;28;20091;-76
2022/07/08 02:48:32;;;;;;;0.03;0.00;;;23.40;73.40;;;;;;5045514;28;20035;-76
2022/07/08 02:50:59;;;;;;;0.17;0.00;;;23.10;75.50;;;;;;5045335;28;20025;-79
2022/07/08 02:53:27;;;;;;;0.30;0.30;;;22.80;74.20;;;;;;5040581;28;20072;-78
2022/07/08 02:55:55;;;;;;;1.70;0.08;;;22.60;75.80;;;;;;5036111;28;20025;-76
2022/07/08 02:58:22;;;;;;;0.00;0.00;;;22.70;76.00;;;;;;5033877;28;20032;-75
2022/07/08 03:00:49;;;;;;;0.00;0.00;;;22.30;75.90;;;;;;5034232;28;20116;-80
2022/07/08 03:03:17;;;;;;;0.15;0.00;;;22.30;77.20;;;;;;5038800;28;20024;-73
2022/07/08 03:05:44;;;;;;;0.00;0.00;;;22.30;77.90;;;;;;5037339;28;20067;-73
2022/07/08 03:08:11;;;;;;;0.03;0.00;;;22.10;76.30;;;;;;5036784;28;20500;-75
2022/07/08 03:10:39;;;;;;;0.55;0.10;;;21.80;77.20;;;;;;5030946;28;20079;-72
2022/07/08 03:13:06;;;;;;;0.00;0.00;;;21.70;77.30;;;;;;5029189;28;20032;-76
2022/07/08 03:15:34;;;;;;;0.00;0.00;;;21.50;77.30;;;;;;5032134;28;20077;-71
2022/07/08 03:18:01;;;;;;;0.00;0.00;;;21.20;77.60;;;;;;5031919;28;20095;-73
2022/07/08 03:20:29;;;;;;;0.22;0.00;;;20.80;78.40;;;;;;5036357;28;20102;-73
2022/07/08 03:23:05;;;;;;;0.22;0.10;;;20.80;78.90;;;;;;5032622;28;20101;-71
2022/07/08 03:25:35;;;;;;;0.00;0.00;;;20.60;79.60;;;;;;5033489;28;20770;-74
2022/07/08 03:28:06;;;;;;;0.38;0.00;;;20.30;80.20;;;;;;5032677;28;20095;-71
2022/07/08 03:30:36;;;;;;;0.00;0.00;;;19.80;79.60;;;;;;5020457;28;20037;-73
2022/07/08 03:33:04;;;;;;;0.28;0.10;;;19.40;81.10;;;;;;5030746;28;20359;-72
2022/07/08 03:35:31;;;;;;;0.03;0.00;;;19.00;80.40;;;;;;5033113;28;20029;-73
2022/07/08 03:38:02;;;;;;;0.20;0.03;;;18.70;80.50;;;;;;5032018;28;20025;-73
2022/07/08 03:43:15;;;;;;;0.22;0.10;;;18.10;83.70;;;;;;5035077;28;20048;-73
2022/07/08 03:45:42;;;;;;;1.02;0.10;;;17.70;83.10;;;;;;5032743;28;20055;-72
2022/07/08 03:48:09;;;;;;;0.52;0.10;;;17.50;83.80;;;;;;5030881;28;20045;-74
2022/07/08 03:50:37;;;;;;;0.65;0.00;;;17.20;84.50;;;;;;5047397;28;20060;-72
2022/07/08 03:53:04;;;;;;;0.20;0.03;;;16.90;83.60;;;;;;5053925;28;20473;-74
2022/07/08 03:55:31;;;;;;;0.08;0.00;;;16.70;85.40;;;;;;5049039;28;20074;-78
2022/07/08 03:57:59;;;;;;;0.10;0.00;;;16.70;85.40;;;;;;5041529;28;20037;-75
2022/07/08 04:00:26;;;;;;;0.03;0.00;;;16.50;85.60;;;;;;5040406;28;20040;-74
2022/07/08 04:02:53;;;;;;;0.00;0.00;;;16.40;86.30;;;;;;5047836;28;20024;-74
2022/07/08 04:05:21;;;;;;;0.00;0.00;;;16.30;85.70;;;;;;5038425;28;20085;-71
2022/07/08 04:07:48;;;;;;;0.10;0.00;;;16.20;86.50;;;;;;5031133;28;20155;-75
2022/07/08 04:10:15;;;;;;;0.10;0.00;;;16.10;85.70;;;;;;5032510;28;20145;-73
2022/07/08 04:12:43;;;;;;;0.28;0.10;;;16.10;87.60;;;;;;5039367;28;20116;-74
2022/07/08 04:15:12;;;;;;;0.20;0.00;;;16.10;87.40;;;;;;5036305;28;20075;-74
2022/07/08 04:17:40;;;;;;;0.00;0.00;;;16.10;86.00;;;;;;5033005;28;20024;-72
2022/07/08 04:20:08;;;;;;;0.17;0.00;;;16.00;87.30;;;;;;5030427;28;20032;-77
2022/07/08 04:22:35;;;;;;;0.17;0.00;;;16.00;86.80;;;;;;5037243;28;20078;-76
2022/07/08 04:25:02;;;;;;;0.10;0.00;;;15.90;87.20;;;;;;5041808;28;20363;-74
2022/07/08 04:27:30;;;;;;;1.00;0.00;;;15.80;86.30;;;;;;5050903;28;20060;-75
2022/07/08 04:29:57;;;;;;;0.17;0.17;;;15.70;87.00;;;;;;5046627;28;20033;-73
2022/07/08 04:32:24;;;;;;;0.22;0.10;;;15.70;86.90;;;;;;5045115;28;20029;-76
2022/07/08 04:34:52;;;;;;;0.63;0.10;;;15.60;87.00;;;;;;5040848;28;20025;-76
2022/07/08 04:37:19;;;;;;;0.20;0.20;;;15.50;86.50;;;;;;5040847;28;20035;-74
2022/07/08 04:39:46;;;;;;;0.10;0.00;;;15.40;86.20;;;;;;5038742;28;20024;-76
2022/07/08 04:42:14;;;;;;;0.32;0.20;;;15.40;87.20;;;;;;5042997;28;20450;-76
2022/07/08 04:44:41;;;;;;;1.27;0.10;;;15.40;87.70;;;;;;5058254;28;20021;-73
2022/07/08 04:47:08;;;;;;;0.20;0.15;;;15.30;87.50;;;;;;5045357;28;20555;-76
2022/07/08 04:49:36;;;;;;;0.20;0.08;;;15.30;87.30;;;;;;5041212;28;20029;-77
2022/07/08 04:52:06;;;;;;;0.47;0.00;;;15.30;87.50;;;;;;5052515;28;20049;-75
2022/07/08 04:54:37;;;;;;;0.00;0.00;;;15.30;88.40;;;;;;5031007;28;20029;-75
2022/07/08 04:57:09;;;;;;;0.15;0.08;;;15.20;87.40;;;;;;5044027;28;20032;-72
2022/07/08 04:59:36;;;;;;;0.10;0.00;;;15.20;88.10;;;;;;5029977;28;20557;-75
2022/07/08 05:02:04;;;;;;;0.10;0.00;;;15.20;87.50;;;;;;5064504;28;20032;-73
2022/07/08 05:04:31;;;;;;;1.00;0.00;;;15.20;88.50;;;;;;5050646;28;20219;-75
2022/07/08 05:06:58;;;;;;;0.20;0.00;;;15.20;88.50;;;;;;5035980;28;20043;-74
2022/07/08 05:09:26;;;;;;;0.00;0.00;;;15.20;89.00;;;;;;5049904;28;20033;-74
2022/07/08 05:11:53;;;;;;;0.68;0.10;;;15.20;87.20;;;;;;5052231;28;20028;-72
2022/07/08 05:14:20;;;;;;;0.03;0.00;;;15.10;86.60;;;;;;5063107;28;20041;-75
2022/07/08 05:16:48;;;;;;;0.00;0.00;;;15.10;87.70;;;;;;5032032;28;20044;-74
2022/07/08 05:19:15;;;;;;;0.20;0.10;;;15.10;88.00;;;;;;5041223;28;20166;-74
2022/07/08 05:21:42;;;;;;;0.20;0.10;;;15.10;88.50;;;;;;5048241;28;20048;-74
2022/07/08 05:24:10;;;;;;;2.95;0.40;;;15.10;88.10;;;;;;5042207;28;20191;-73
2022/07/08 05:26:37;;;;;;;1.50;0.47;;;15.00;88.90;;;;;;5050816;28;20184;-75
2022/07/08 05:29:05;;;;;;;1.50;0.60;;;14.90;89.30;;;;;;5043712;28;20080;-75
2022/07/08 05:31:32;;;;;;;0.40;0.15;;;14.90;89.10;;;;;;5037495;28;20048;-71
2022/07/08 05:33:59;;;;;;;0.10;0.10;;;14.80;89.00;;;;;;5051581;28;20048;-72
2022/07/08 05:36:27;;;;;;;1.13;0.40;;;14.80;89.70;;;;;;5062776;28;20025;-75
2022/07/08 05:38:55;;;;;;;0.52;0.52;;;14.70;89.50;;;;;;5060164;28;20028;-74
2022/07/08 05:41:22;;;;;;;0.10;0.10;;;14.70;88.80;;;;;;5063701;28;20057;-73
2022/07/08 05:43:50;;;;;;;0.08;0.00;;;14.70;88.80;;;;;;5069621;28;20032;-76
2022/07/08 05:46:18;;;;;;;0.22;0.10;;;14.70;89.30;;;;;;5044545;28;20025;-77
2022/07/08 05:48:45;;;;;;;0.13;0.10;;;14.60;89.10;;;;;;5057418;28;20029;-78
2022/07/08 05:51:13;;;;;;;1.05;0.20;;;14.50;90.20;;;;;;5050952;28;20100;-79
2022/07/08 05:53:40;;;;;;;0.70;0.20;;;14.50;90.00;;;;;;5045496;28;20048;-76
2022/07/08 05:56:07;;;;;;;0.73;0.10;;;14.50;90.10;;;;;;5049770;28;20456;-80
2022/07/08 05:58:35;;;;;;;0.20;0.10;;;14.50;89.70;;;;;;5051650;28;20025;-74
2022/07/08 06:01:03;;;;;;;0.50;0.30;;;14.50;89.90;;;;;;5046111;28;20049;-75
2022/07/08 06:03:31;;;;;;;1.23;0.32;;;14.40;90.40;;;;;;5035966;28;20032;-71
2022/07/08 06:05:58;;;;;;;0.43;0.32;;;14.40;90.30;;;;;;5051889;28;20036;-72
2022/07/08 06:08:26;;;;;;;0.68;0.30;;;14.40;90.20;;;;;;5053049;28;20023;-74
2022/07/08 06:10:53;;;;;;;0.55;0.40;;;14.40;90.40;;;;;;5046243;28;21660;-72
2022/07/08 06:13:21;;;;;;;0.35;0.17;;;14.30;90.40;;;;;;5051444;28;20553;-75
2022/07/08 06:15:48;;;;;;;1.23;0.60;;;14.40;90.50;;;;;;5039430;28;20037;-75
2022/07/08 06:18:16;;;;;;;0.85;0.40;;;14.40;90.50;;;;;;5048696;28;20026;-75
2022/07/08 06:20:43;;;;;;;1.48;0.30;;;14.40;90.30;;;;;;5047943;28;20029;-72
2022/07/08 06:23:11;;;;;;;0.60;0.60;;;14.50;90.30;;;;;;5044480;28;20497;-72
2022/07/08 06:25:39;;;;;;;0.70;0.40;;;14.50;90.40;;;;;;5048578;28;20026;-72
2022/07/08 06:28:06;;;;;;;2.33;1.10;;;14.50;90.50;;;;;;5045660;28;20025;-75
2022/07/08 06:30:34;;;;;;;0.50;0.30;;;14.40;90.50;;;;;;5044748;28;20036;-73
2022/07/08 06:33:02;;;;;;;0.40;0.30;;;14.40;90.80;;;;;;5047850;28;20249;-74
2022/07/08 06:35:30;;;;;;;1.25;0.13;;;14.30;91.10;;;;;;5042581;28;20373;-72
2022/07/08 06:37:57;;;;;;;0.85;0.20;;;14.20;90.80;;;;;;5032801;28;20040;-72
2022/07/08 06:40:25;;;;;;;0.75;0.30;;;14.00;90.90;;;;;;5051968;28;20029;-72
2022/07/08 06:42:52;;;;;;;1.75;0.20;;;13.80;91.00;;;;;;5047007;28;20363;-72
2022/07/08 06:45:20;;;;;;;0.75;0.30;;;13.70;91.30;;;;;;5040882;28;20040;-72
2022/07/08 06:47:47;;;;;;;0.70;0.30;;;13.50;91.80;;;;;;5034648;28;20051;-73
2022/07/08 06:50:15;;;;;;;0.85;0.52;;;13.30;91.80;;;;;;5041385;28;20457;-74
2022/07/08 06:52:42;;;;;;;0.70;0.40;;;13.20;92.30;;;;;;5053622;28;20059;-71
2022/07/08 06:55:10;;;;;;;0.55;0.30;;;13.10;92.00;;;;;;5040560;28;20029;-73
2022/07/08 06:57:37;;;;;;;1.10;0.40;;;13.00;92.30;;;;;;5048904;28;20226;-73
2022/07/08 07:00:06;;;;;;;0.55;0.28;;;12.90;92.60;;;;;;5041746;28;20060;-73
2022/07/08 07:02:33;;;;;;;0.40;0.30;;;12.80;92.50;;;;;;5044625;28;20060;-73
2022/07/08 07:05:01;;;;;;;0.88;0.70;;;12.70;92.90;;;;;;5042714;28;20044;-75
2022/07/08 07:07:28;;;;;;;0.68;0.45;;;12.50;92.90;;;;;;5038687;28;20081;-73
2022/07/08 07:09:56;;;;;;;1.75;1.35;;;12.50;92.80;;;;;;5046064;28;20037;-74
2022/07/08 07:12:24;;;;;;;2.38;1.67;;;12.40;93.00;;;;;;5047972;28;20327;-74
2022/07/08 07:14:52;;;;;;;6.80;6.18;;;12.30;93.30;;;;;;5036553;28;20037;-72
2022/07/08 07:17:20;;;;;;;3.05;2.72;;;12.20;93.60;;;;;;5033884;28;20018;-74
2022/07/08 07:19:49;;;;;;;1.25;0.57;;;12.20;94.00;;;;;;5040167;28;20069;-74
2022/07/08 07:22:17;;;;;;;4.60;2.08;;;12.10;93.90;;;;;;5029140;28;20092;-73
2022/07/08 07:24:45;;;;;;;0.77;0.50;;;12.00;94.00;;;;;;5027908;28;20033;-74
2022/07/08 07:27:14;;;;;;;2.40;1.55;;;11.90;93.90;;;;;;5049915;28;20028;-74
2022/07/08 07:29:42;;;;;;;0.90;0.85;;;11.90;94.10;;;;;;5042504;28;20040;-74
2022/07/08 07:32:09;;;;;;;3.33;3.03;;;11.80;94.30;;;;;;5030542;28;20052;-74
2022/07/08 07:34:37;;;;;;;1.50;0.80;;;11.80;94.70;;;;;;5035079;28;20055;-75
2022/07/08 07:37:04;;;;;;;0.75;0.50;;;11.70;94.90;;;;;;5032626;28;20029;-73
2022/07/08 07:39:32;;;;;;;1.42;0.82;;;11.60;94.80;;;;;;5043630;28;20028;-73
2022/07/08 07:41:59;;;;;;;3.67;1.77;;;11.60;94.80;;;;;;5046147;28;20044;-74
2022/07/08 07:44:27;;;;;;;2.22;0.95;;;11.50;94.90;;;;;;5045553;28;20521;-74
2022/07/08 07:46:54;;;;;;;3.17;1.65;;;11.50;94.80;;;;;;5041388;28;20028;-74
2022/07/08 07:49:21;;;;;;;3.78;1.50;;;11.50;94.90;;;;;;5037886;28;20033;-73
2022/07/08 07:51:49;;;;;;;4.18;1.95;;;11.50;95.10;;;;;;5042780;28;20021;-75
2022/07/08 07:54:17;;;;;;;5.18;2.55;;;11.50;95.10;;;;;;5033886;28;20036;-73
2022/07/08 07:56:44;;;;;;;3.80;1.85;;;11.40;95.40;;;;;;5029811;28;20033;-73
2022/07/08 07:59:12;;;;;;;3.15;1.35;;;11.40;95.50;;;;;;5030431;28;20448;-75
2022/07/08 08:01:42;;;;;;;1.83;0.80;;;11.30;95.50;;;;;;5030178;28;20053;-75
2022/07/08 08:04:09;;;;;;;1.73;0.40;;;11.30;95.50;;;;;;5030302;28;20025;-74
2022/07/08 08:06:37;;;;;;;2.58;1.65;;;11.20;95.70;;;;;;5030125;28;20478;-75
2022/07/08 08:09:04;;;;;;;1.73;0.65;;;11.20;95.90;;;;;;5035366;28;20025;-72
2022/07/08 08:11:31;;;;;;;0.50;0.25;;;11.10;95.90;;;;;;5029232;28;20479;-73
2022/07/08 08:14:00;;;;;;;1.17;0.30;;;11.10;96.00;;;;;;5034082;28;20067;-72
2022/07/08 08:16:27;;;;;;;0.35;0.30;;;11.10;96.20;;;;;;5031248;28;20022;-71
2022/07/08 08:18:55;;;;;;;1.00;0.60;;;11.00;96.10;;;;;;5039298;28;20057;-73
2022/07/08 08:21:22;;;;;;;1.50;0.45;;;11.00;96.10;;;;;;5039722;28;20036;-74
2022/07/08 08:23:49;;;;;;;0.82;0.50;;;11.00;96.30;;;;;;5035053;28;20033;-72
2022/07/08 08:26:17;;;;;;;1.00;0.70;;;11.00;96.60;;;;;;5029022;28;20021;-73
2022/07/08 08:28:44;;;;;;;1.73;1.08;;;10.80;96.90;;;;;;5029669;28;20120;-73
2022/07/08 08:31:13;;;;;;;4.70;1.83;;;10.70;97.40;;;;;;5030767;28;20109;-73
2022/07/08 08:33:40;;;;;;;2.45;2.15;;;10.70;97.40;;;;;;5044643;28;20040;-75
2022/07/08 08:36:08;;;;;;;3.67;1.90;;;10.60;97.90;;;;;;5031497;28;20044;-76
2022/07/08 08:38:35;;;;;;;5.55;2.28;;;10.60;97.90;;;;;;5046811;28;20025;-72
2022/07/08 08:41:03;;;;;;;3.53;1.80;;;10.50;98.40;;;;;;5038919;28;20025;-75
2022/07/08 08:43:30;;;;;;;3.33;1.98;;;10.40;98.30;;;;;;5031927;28;20036;-73
2022/07/08 08:45:58;;;;;;;3.50;2.30;;;10.30;98.70;;;;;;5049277;28;20502;-75
2022/07/08 08:48:26;;;;;;;3.65;2.28;;;10.20;98.80;;;;;;5045504;28;20374;-74
2022/07/08 08:50:56;;;;;;;9.82;3.88;;;10.10;99.10;;;;;;5031974;28;20026;-73
2022/07/08 08:53:30;;;;;;;5.22;3.92;;;10.00;99.20;;;;;;5030918;28;20074;-73
2022/07/08 08:56:01;;;;;;;6.88;3.78;;;9.90;99.70;;;;;;5034355;28;20045;-76
2022/07/08 08:58:29;;;;;;;6.65;3.65;;;9.80;99.90;;;;;;5028655;28;20447;-75
2022/07/08 09:00:57;;;;;;;7.05;3.70;;;9.70;99.90;;;;;;5039544;28;20041;-76
2022/07/08 09:03:24;;;;;;;8.88;3.95;;;9.70;99.90;;;;;;5042804;28;20113;-72
2022/07/08 09:05:51;;;;;;;6.95;3.33;;;9.60;99.90;;;;;;5035792;28;20028;-75
2022/07/08 09:08:19;;;;;;;9.15;4.32;;;9.50;99.90;;;;;;5042983;28;20441;-73
2022/07/08 09:10:46;;;;;;;9.23;3.92;;;9.40;99.90;;;;;;5029237;28;20040;-74
2022/07/08 09:13:15;;;;;;;7.72;3.22;;;9.30;99.90;;;;;;5037341;28;20025;-72
2022/07/08 09:15:48;;;;;;;5.60;2.92;;;9.20;99.90;;;;;;5028639;28;20078;-76
2022/07/08 09:18:17;;;;;;;6.55;2.60;;;9.20;99.90;;;;;;5028823;28;20036;-75
2022/07/08 09:20:49;;;;;;;3.33;2.10;;;9.20;99.90;;;;;;5028604;28;20040;-74
2022/07/08 09:23:24;;;;;;;5.25;2.58;;;9.20;99.90;;;;;;5028722;28;20101;-74
2022/07/08 09:25:54;;;;;;;4.10;1.85;;;9.10;99.90;;;;;;5035713;28;20537;-74
2022/07/08 09:28:38;;;;;;;4.25;2.00;;;9.10;99.90;;;;;;5033932;28;21767;-73
2022/07/08 09:31:14;;;;;;;3.63;2.22;;;9.00;99.90;;;;;;5030321;28;20103;-73
2022/07/08 09:33:43;;;;;;;3.95;2.10;;;8.90;99.90;;;;;;5051883;28;20083;-74
2022/07/08 09:36:11;;;;;;;4.13;2.10;;;8.90;99.90;;;;;;5034860;28;20025;-74
2022/07/08 09:38:40;;;;;;;5.43;2.83;;;8.90;99.90;;;;;;5042403;28;20025;-74
2022/07/08 09:41:20;;;;;;;4.47;2.97;;;9.00;99.90;;;;;;5037820;28;20387;-75
2022/07/08 09:43:49;;;;;;;6.13;3.03;;;9.00;99.90;;;;;;5053026;28;20035;-77
2022/07/08 09:46:18;;;;;;;4.20;2.03;;;9.00;99.90;;;;;;5038265;28;20064;-76
2022/07/08 09:48:46;;;;;;;5.80;2.95;;;8.90;99.90;;;;;;5045935;28;20076;-75
2022/07/08 09:51:16;;;;;;;6.10;2.85;;;8.90;99.90;;;;;;5054094;28;20062;-75
2022/07/08 09:53:44;;;;;;;6.45;3.30;;;8.80;99.90;;;;;;5047736;28;20478;-73
2022/07/08 09:56:11;;;;;;;7.65;3.97;;;8.80;99.90;;;;;;5029144;28;20033;-75
2022/07/08 09:58:38;;;;;;;7.43;3.50;;;8.70;99.90;;;;;;5039144;28;20032;-73
2022/07/08 10:01:06;;;;;;;7.25;4.53;;;8.60;99.90;;;;;;5032918;28;20056;-74
2022/07/08 10:03:35;;;;;;;6.45;5.20;;;8.60;99.90;;;;;;5048287;28;20477;-75
2022/07/08 10:06:03;;;;;;;11.23;6.32;;;8.60;99.90;;;;;;5045439;28;20029;-73
2022/07/08 10:08:30;;;;;;;9.63;5.15;;;8.50;99.90;;;;;;5048464;28;20044;-75
2022/07/08 10:11:03;;;;;;;9.93;6.25;;;8.40;99.90;;;;;;5045787;28;20580;-74
2022/07/08 10:13:32;;;;;;;11.75;5.90;;;8.40;99.90;;;;;;5051849;28;20041;-75
2022/07/08 10:16:02;;;;;;;7.88;5.75;;;8.30;99.90;;;;;;5037323;28;20052;-75
2022/07/08 10:18:32;;;;;;;6.70;5.15;;;8.30;99.90;;;;;;5040709;28;20059;-74
2022/07/08 10:21:02;;;;;;;10.80;5.78;;;8.30;99.90;;;;;;5031840;28;20869;-75
2022/07/08 10:23:51;;;;;;;9.48;5.60;;;8.20;99.90;;;;;;5033086;28;20089;-76
2022/07/08 10:26:29;;;;;;;8.40;5.38;;;8.20;99.90;;;;;;5034259;28;20032;-74
2022/07/08 10:29:05;;;;;;;8.68;4.75;;;8.20;99.90;;;;;;5047569;28;20399;-73
2022/07/08 10:31:44;;;;;;;9.70;5.47;;;8.10;99.90;;;;;;5044022;28;20029;-73
2022/07/08 10:34:13;;;;;;;12.80;3.85;;;8.00;99.90;;;;;;5053519;28;20052;-74
2022/07/08 10:36:53;;;;;;;5.97;3.75;;;8.00;99.90;;;;;;5052119;28;20024;-74
2022/07/08 10:39:53;;;;;;;7.07;4.00;;;8.00;99.90;;;;;;5055593;28;20108;-74
2022/07/08 10:42:21;;;;;;;4.28;2.83;;;8.00;99.90;;;;;;4999481;28;20046;-74
2022/07/08 10:44:48;;;;;;;8.23;3.33;;;8.00;99.90;;;;;;5051688;28;20021;-73
2022/07/08 10:47:29;;;;;;;4.32;2.70;;;8.00;99.90;;;;;;5051678;28;20051;-73
2022/07/08 10:50:06;;;;;;;5.63;3.92;;;8.00;99.90;;;;;;5045612;28;20042;-73
2022/07/08 10:52:39;;;;;;;5.97;3.45;;;8.00;99.90;;;;;;5059026;28;20454;-73
2022/07/08 10:55:13;;;;;;;5.88;3.72;;;8.10;99.90;;;;;;5058717;28;20083;-75
2022/07/08 10:57:57;;;;;;;4.18;2.90;;;8.20;99.90;;;;;;5051300;28;20025;-73
2022/07/08 11:00:25;;;;;;;4.85;2.63;;;8.30;99.90;;;;;;5044134;28;20029;-75
2022/07/08 11:02:53;;;;;;;4.05;2.67;;;8.30;99.90;;;;;;5045624;28;20036;-75
2022/07/08 11:05:42;;;;;;;9.35;4.55;;;8.30;99.90;;;;;;5046041;28;20028;-75
2022/07/08 11:08:37;;;;;;;6.18;3.85;;;8.20;99.90;;;;;;5050552;28;20028;-76
2022/07/08 11:11:04;;;;;;;4.90;3.80;;;8.20;99.90;;;;;;5053085;28;20044;-73
2022/07/08 11:13:33;;;;;;;4.97;3.90;;;8.10;99.90;;;;;;5042374;28;20052;-78
2022/07/08 11:16:01;;;;;;;4.85;3.47;;;8.10;99.90;;;;;;5042751;28;20036;-75
2022/07/08 11:18:28;;;;;;;7.18;4.18;;;8.00;99.90;;;;;;5047758;28;20025;-74
2022/07/08 11:21:00;;;;;;;8.07;3.47;;;7.90;99.90;;;;;;5048792;28;20028;-76
2022/07/08 11:23:29;;;;;;;7.18;3.75;;;7.80;99.90;;;;;;5048706;28;20037;-74
2022/07/08 11:25:58;;;;;;;4.32;3.20;;;7.70;99.90;;;;;;5046706;28;20083;-74
2022/07/08 11:28:25;;;;;;;5.57;3.63;;;7.60;99.90;;;;;;5059325;28;20112;-75
2022/07/08 11:30:53;;;;;;;6.93;4.45;;;7.60;99.90;;;;;;5046978;28;20025;-75
2022/07/08 11:33:37;;;;;;;7.57;3.60;;;7.50;99.90;;;;;;5054372;28;20041;-76
2022/07/08 11:36:16;;;;;;;5.47;3.17;;;7.60;99.90;;;;;;5049936;28;20025;-72
2022/07/08 11:38:44;;;;;;;37.90;16.83;;;7.60;99.90;;;;;;5047559;28;20048;-72
2022/07/08 11:41:12;;;;;;;61.60;28.02;;;7.50;99.90;;;;;;5046802;28;20029;-74
2022/07/08 11:43:40;;;;;;;103.68;45.05;;;7.50;99.90;;;;;;5024401;28;20025;-74
2022/07/08 11:46:22;;;;;;;52.25;25.70;;;7.40;99.90;;;;;;5039655;28;20817;-74
2022/07/08 11:48:49;;;;;;;85.55;37.35;;;7.40;99.90;;;;;;5033970;28;20048;-75
2022/07/08 11:51:17;;;;;;;62.15;30.83;;;7.30;99.90;;;;;;5036106;28;20017;-74
2022/07/08 11:53:45;;;;;;;29.75;13.57;;;7.30;99.90;;;;;;5052770;28;20458;-76
2022/07/08 11:56:13;;;;;;;15.52;8.13;;;7.20;99.90;;;;;;5054101;28;20029;-75
2022/07/08 11:58:41;;;;;;;8.27;5.13;;;7.20;99.90;;;;;;5048278;28;20029;-77
2022/07/08 12:01:08;;;;;;;11.18;6.28;;;7.30;99.90;;;;;;5048703;28;20061;-76
2022/07/08 12:03:37;;;;;;;7.90;5.47;;;7.30;99.90;;;;;;5051039;28;20025;-76
2022/07/08 12:06:05;;;;;;;6.65;3.75;;;7.30;99.90;;;;;;5022834;28;20113;-73
2022/07/08 12:08:33;;;;;;;48.53;21.55;;;7.20;99.90;;;;;;5051599;28;20555;-75
2022/07/08 12:11:14;;;;;;;95.45;43.80;;;7.20;99.90;;;;;;5043347;28;20033;-76
2022/07/08 12:13:49;;;;;;;50.95;22.58;;;7.20;99.90;;;;;;5034574;28;20060;-75
2022/07/08 12:16:33;;;;;;;22.83;11.75;;;7.20;99.90;;;;;;5051525;28;20081;-75
2022/07/08 12:19:02;;;;;;;16.58;7.18;;;7.20;99.90;;;;;;5044024;28;20033;-77
2022/07/08 12:21:30;;;;;;;11.48;4.90;;;7.20;99.90;;;;;;5034087;28;20087;-76
2022/07/08 12:24:02;;;;;;;11.85;5.25;;;7.20;99.90;;;;;;5059236;28;20489;-78
2022/07/08 12:26:30;;;;;;;9.18;4.53;;;7.20;99.90;;;;;;5057591;28;20521;-75
2022/07/08 12:28:58;;;;;;;8.23;5.20;;;7.20;99.90;;;;;;5041361;28;20128;-77
2022/07/08 12:31:37;;;;;;;8.00;3.72;;;7.30;99.90;;;;;;5040541;28;20041;-77
2022/07/08 12:34:09;;;;;;;11.38;7.18;;;7.30;99.90;;;;;;5045461;28;20084;-78
2022/07/08 12:36:36;;;;;;;35.17;22.80;;;7.40;99.90;;;;;;5042529;28;20199;-77
2022/07/08 12:39:13;;;;;;;16.52;12.50;;;7.50;99.90;;;;;;5039175;28;20120;-78
2022/07/08 12:41:41;;;;;;;18.15;11.68;;;7.50;99.90;;;;;;5044558;28;20025;-77
2022/07/08 12:44:35;;;;;;;12.07;6.88;;;7.50;99.90;;;;;;5052684;28;20035;-77
2022/07/08 12:47:04;;;;;;;8.52;5.72;;;7.50;99.90;;;;;;5021518;28;20051;-78
2022/07/08 12:49:34;;;;;;;14.52;8.70;;;7.50;99.90;;;;;;5032845;28;20031;-78
2022/07/08 12:52:05;;;;;;;11.98;8.25;;;7.50;99.90;;;;;;5031402;28;20041;-77
2022/07/08 12:54:32;;;;;;;16.63;9.10;;;7.40;99.90;;;;;;5032983;28;20052;-77
2022/07/08 12:57:01;;;;;;;11.25;6.82;;;7.40;99.90;;;;;;5029418;28;20025;-77
2022/07/08 12:59:29;;;;;;;13.00;5.88;;;7.30;99.90;;;;;;5042674;28;20052;-78
2022/07/08 13:01:58;;;;;;;9.18;4.80;;;7.20;99.90;;;;;;5061458;28;20037;-78